Terminal Aerodrome Forecast
Issued by NWS

Home | Current Version | Previous Version | Graphics & Text | Print | Product List | Glossary On
Versions: 1 2 3 4 5 6 7 8 9 10 11 12 13
404
FTUS42 KMHX 221807 AAA
TAFISO
TAF AMD
KISO 221807Z 2218/2318 01017G26KT P6SM BKN025
     FM221810 01016G25KT P6SM BKN035
     FM222300 02010KT P6SM SKC
      AMD LTD TO CLD VIS AND WIND=

USA.gov is the U.S. government's official web portal to all federal, state and local government web resources and services.